KADW/ADW METAR and TAF weather

Enter ICAO airport designator
Station Type Date Time Source
KADW METAR 2021/06/22 22:56 UTC NOAA

KADW 222256Z AUTO 33012G16KT 10SM CLR 20/12 A2988 RMK AO2 SLP123 T01980121 $


Station Type Date Time Source
KADW Decoded METAR 2021/06/22 22:56 UTC NOAA

Camp Springs / Andrews Air Force Base, MD, United States (KADW) 38-49N 076-51W 88M
Jun 22, 2021 - 06:56 PM EDT / 2021.06.22 2256 UTC
Wind: from the NNW (330 degrees) at 14 MPH (12 KT) gusting to 18 MPH (16 KT):0
Visibility: 10 mile(s):0
Sky conditions: clear
Temperature: 67.6 F (19.8 C)
Dew Point: 53.8 F (12.1 C)
Relative Humidity: 61%
Pressure (altimeter): 29.88 in. Hg (1011 hPa)
ob: KADW 222256Z AUTO 33012G16KT 10SM CLR 20/12 A2988 RMK AO2 SLP123 T01980121
cycle: 23

Station Type Date Time Source
KADW TAF 2021/06/22 17:57 UTC NOAA

TAF TAF KADW 221700Z 2217/2323 33012KT 8000 -SHRA SCT015 OVC020 QNH2981INS
BECMG 2219/2220 34010G20KT 9999 NSW OVC020 QNH2982INS
BECMG 2222/2223 32010G20KT 9999 FEW040 BKN060 QNH2986INS
BECMG 2300/2301 34009KT 9999 FEW080 QNH2989INS TX22/2321Z TN13/2310Z

Example: see airport list